createdAt,value
2023-02-02T00:02:09.459Z,97134.91
2023-02-02T00:04:36.858Z,97137.44
2023-02-02T00:07:05.375Z,97135.69
2023-02-02T00:09:33.373Z,97137.50
2023-02-02T00:12:00.996Z,97137.47
2023-02-02T00:14:28.213Z,97134.03
2023-02-02T00:16:56.397Z,97138.38
2023-02-02T00:19:26.505Z,97136.59
2023-02-02T00:21:55.076Z,97131.44
2023-02-02T00:24:22.841Z,97132.25
2023-02-02T00:26:53.262Z,97134.03
2023-02-02T00:29:25.813Z,97132.28
2023-02-02T00:31:52.897Z,97128.84
2023-02-02T00:34:21.126Z,97127.09
2023-02-02T00:36:48.737Z,97127.94
2023-02-02T00:39:21.543Z,97121.00
2023-02-02T00:41:48.675Z,97107.19
2023-02-02T00:44:34.116Z,97108.94
2023-02-02T00:47:08.152Z,97113.28
2023-02-02T00:49:34.816Z,97106.34
2023-02-02T00:52:01.481Z,97111.50
2023-02-02T00:54:28.870Z,97102.88
2023-02-02T00:56:55.517Z,97100.31
2023-02-02T00:59:22.128Z,97090.75
2023-02-02T01:01:48.832Z,97089.03
2023-02-02T01:04:15.473Z,97094.16
2023-02-02T01:06:42.309Z,97079.47
2023-02-02T01:09:09.113Z,97068.16
2023-02-02T01:11:35.847Z,97069.78
2023-02-02T01:14:02.678Z,97073.31
2023-02-02T01:16:29.625Z,97078.41
2023-02-02T01:18:56.784Z,97091.38
2023-02-02T01:21:23.495Z,97086.34
2023-02-02T01:23:50.226Z,97078.59
2023-02-02T01:26:17.607Z,97076.81
2023-02-02T01:28:45.055Z,97079.50
2023-02-02T01:31:15.042Z,97073.41
2023-02-02T01:33:43.736Z,97073.38
2023-02-02T01:36:13.772Z,97067.38
2023-02-02T01:38:40.516Z,97076.91
2023-02-02T01:41:07.437Z,97071.69
2023-02-02T01:43:43.383Z,97076.06
2023-02-02T01:46:14.898Z,97070.75
2023-02-02T01:48:46.020Z,97069.91
2023-02-02T01:51:18.901Z,97072.47
2023-02-02T01:53:47.911Z,97071.59
2023-02-02T01:56:19.972Z,97071.69
2023-02-02T01:58:47.036Z,97077.72
2023-02-02T02:01:14.902Z,97078.56
2023-02-02T02:03:41.577Z,97070.75
2023-02-02T02:06:16.756Z,97063.81
2023-02-02T02:09:04.742Z,97067.31
2023-02-02T02:11:33.662Z,97067.25
2023-02-02T02:14:24.576Z,97062.09
2023-02-02T02:17:14.949Z,97073.34
2023-02-02T02:20:28.266Z,97061.22
2023-02-02T02:23:35.152Z,97069.91
2023-02-02T02:26:38.310Z,97065.59
2023-02-02T02:29:36.030Z,97067.34
2023-02-02T02:32:11.548Z,97064.75
2023-02-02T02:35:18.828Z,97067.38
2023-02-02T02:37:55.449Z,97062.19
2023-02-02T02:40:29.326Z,97065.63
2023-02-02T02:43:01.279Z,97051.81
2023-02-02T02:45:29.318Z,97063.09
2023-02-02T02:47:56.377Z,97050.16
2023-02-02T02:50:23.052Z,97055.34
2023-02-02T02:53:05.403Z,97063.97
2023-02-02T02:56:01.126Z,97064.81
2023-02-02T02:59:07.348Z,97063.97
2023-02-02T03:01:47.236Z,97057.94
2023-02-02T03:04:33.957Z,97057.13
2023-02-02T03:07:07.627Z,97055.38
2023-02-02T03:09:39.453Z,97050.22
2023-02-02T03:12:06.278Z,97041.63
2023-02-02T03:14:36.996Z,97044.19
2023-02-02T03:17:04.119Z,97046.75
2023-02-02T03:19:31.075Z,97041.72
2023-02-02T03:21:57.770Z,97040.91
2023-02-02T03:24:24.481Z,97040.91
2023-02-02T03:26:51.893Z,97036.56
2023-02-02T03:29:19.286Z,97035.75
2023-02-02T03:31:46.893Z,97037.59
2023-02-02T03:34:13.517Z,97041.94
2023-02-02T03:36:40.100Z,97041.09
2023-02-02T03:39:06.662Z,97036.75
2023-02-02T03:41:33.311Z,97041.94
2023-02-02T03:43:59.885Z,97047.13
2023-02-02T03:46:26.516Z,97039.31
2023-02-02T03:48:53.240Z,97043.69
2023-02-02T03:51:19.903Z,97035.84
2023-02-02T03:53:49.708Z,97038.41
2023-02-02T03:56:17.039Z,97036.75
2023-02-02T03:58:43.662Z,97027.22
2023-02-02T04:01:16.323Z,97020.28
2023-02-02T04:03:43.157Z,97021.19
2023-02-02T04:06:09.943Z,97020.41
2023-02-02T04:08:36.722Z,97009.16
2023-02-02T04:11:05.239Z,97004.88
2023-02-02T04:13:34.553Z,97007.53
2023-02-02T04:16:03.870Z,97002.38
2023-02-02T04:18:30.724Z,96998.84
2023-02-02T04:21:01.869Z,96993.69
2023-02-02T04:23:29.633Z,96997.19
2023-02-02T04:25:57.550Z,97004.16
2023-02-02T04:28:24.853Z,97003.34
2023-02-02T04:30:53.090Z,97008.50
2023-02-02T04:33:20.679Z,97013.69
2023-02-02T04:35:50.093Z,97009.31
2023-02-02T04:38:19.790Z,97008.41
2023-02-02T04:40:48.133Z,97006.66
2023-02-02T04:43:15.394Z,97009.25
2023-02-02T04:45:42.559Z,97014.38
2023-02-02T04:48:09.634Z,97018.69
2023-02-02T04:50:36.250Z,97010.88
2023-02-02T04:53:03.913Z,97018.63
2023-02-02T04:55:30.673Z,97007.31
2023-02-02T04:57:57.596Z,97007.31
2023-02-02T05:00:24.848Z,97009.94
2023-02-02T05:02:51.503Z,97012.56
2023-02-02T05:05:20.128Z,97020.25
2023-02-02T05:07:47.049Z,97021.19
2023-02-02T05:10:13.987Z,97017.72
2023-02-02T05:12:40.688Z,97005.69
2023-02-02T05:15:08.080Z,97005.63
2023-02-02T05:17:34.847Z,97013.28
2023-02-02T05:20:01.629Z,97013.31
2023-02-02T05:22:28.282Z,97025.38
2023-02-02T05:24:54.918Z,97026.22
2023-02-02T05:27:24.385Z,97018.34
2023-02-02T05:29:50.977Z,97011.31
2023-02-02T05:32:17.706Z,97015.59
2023-02-02T05:34:44.373Z,97017.34
2023-02-02T05:37:11.111Z,97025.91
2023-02-02T05:39:37.873Z,97024.91
2023-02-02T05:42:04.601Z,97016.22
2023-02-02T05:44:31.488Z,97028.31
2023-02-02T05:46:58.269Z,97017.00
2023-02-02T05:49:25.044Z,97007.41
2023-02-02T05:51:58.208Z,97006.53
2023-02-02T05:56:54.724Z,97018.50
2023-02-02T05:59:21.749Z,97015.09
2023-02-02T06:01:48.886Z,97015.91
2023-02-02T06:04:16.159Z,97023.75
2023-02-02T06:06:43.195Z,97014.25
2023-02-02T06:09:10.159Z,97011.59
2023-02-02T06:11:36.884Z,97009.03
2023-02-02T06:14:03.557Z,97003.03
2023-02-02T06:16:30.212Z,97002.19
2023-02-02T06:18:57.329Z,96997.81
2023-02-02T06:21:24.932Z,97000.38
2023-02-02T06:23:52.392Z,96997.69
2023-02-02T06:26:19.416Z,96990.72
2023-02-02T06:28:50.471Z,96987.25
2023-02-02T06:31:19.640Z,96976.81
2023-02-02T06:33:53.648Z,96974.22
2023-02-02T06:36:20.740Z,96980.31
2023-02-02T06:38:51.964Z,96975.06
2023-02-02T06:41:20.531Z,96969.81
2023-02-02T06:43:50.362Z,96975.69
2023-02-02T06:46:17.450Z,96967.94
2023-02-02T06:48:44.211Z,96967.03
2023-02-02T06:51:10.800Z,96986.13
2023-02-02T06:53:37.586Z,96976.53
2023-02-02T06:56:08.928Z,96983.41
2023-02-02T06:58:35.734Z,96984.19
2023-02-02T07:01:11.615Z,96971.16
2023-02-02T07:03:38.935Z,96960.72
2023-02-02T07:06:19.049Z,96958.06
2023-02-02T07:08:47.563Z,96945.72
2023-02-02T07:11:27.802Z,96951.63
2023-02-02T07:13:55.362Z,96954.13
2023-02-02T07:16:22.279Z,96956.66
2023-02-02T07:18:49.512Z,96953.19
2023-02-02T07:21:23.325Z,96966.13
2023-02-02T07:23:50.775Z,96965.16
2023-02-02T07:26:19.299Z,96964.31
2023-02-02T07:28:47.129Z,96964.91
2023-02-02T07:31:22.903Z,96967.34
2023-02-02T07:33:50.628Z,96964.63
2023-02-02T07:36:19.714Z,96961.88
2023-02-02T07:38:48.045Z,96972.97
2023-02-02T07:41:15.555Z,96961.47
2023-02-02T07:43:42.993Z,96968.31
2023-02-02T07:46:12.955Z,96971.47
2023-02-02T07:48:42.651Z,96979.94
2023-02-02T07:51:13.397Z,96979.78
2023-02-02T07:53:43.978Z,96978.72
2023-02-02T07:56:16.618Z,96985.56
2023-02-02T07:58:43.758Z,96971.56
2023-02-02T08:01:12.605Z,96974.97
2023-02-02T08:03:39.592Z,96978.13
2023-02-02T08:06:13.755Z,96976.25
2023-02-02T08:08:40.554Z,96972.03
2023-02-02T08:11:10.257Z,96965.66
2023-02-02T08:13:36.967Z,96971.50
2023-02-02T08:16:03.802Z,96971.38
2023-02-02T08:18:30.566Z,96977.47
2023-02-02T08:21:01.857Z,96984.19
2023-02-02T08:23:29.252Z,96996.09
2023-02-02T08:26:08.461Z,96995.06
2023-02-02T08:28:36.526Z,96996.69
2023-02-02T08:31:18.475Z,96997.50
2023-02-02T08:33:45.832Z,96994.22
2023-02-02T08:36:20.583Z,96995.31
2023-02-02T08:38:47.520Z,96988.59
2023-02-02T08:41:19.206Z,96994.06
2023-02-02T08:43:46.164Z,96990.75
2023-02-02T08:46:14.634Z,96992.41
2023-02-02T08:48:44.856Z,96994.25
2023-02-02T08:51:12.942Z,96994.31
2023-02-02T08:53:39.602Z,96997.88
2023-02-02T08:56:07.765Z,97006.81
2023-02-02T08:58:34.546Z,97001.59
2023-02-02T09:01:05.269Z,97002.38
2023-02-02T09:03:31.874Z,97007.50
2023-02-02T09:05:58.409Z,97004.09
2023-02-02T09:08:24.968Z,97003.09
2023-02-02T09:10:52.726Z,97006.50
2023-02-02T09:13:19.285Z,97006.47
2023-02-02T09:15:45.803Z,96997.69
2023-02-02T09:18:12.294Z,97003.41
2023-02-02T09:20:45.034Z,97005.97
2023-02-02T09:23:11.702Z,97006.81
2023-02-02T09:25:38.337Z,96998.09
2023-02-02T09:28:05.127Z,96996.16
2023-02-02T09:30:31.803Z,96989.97
2023-02-02T09:32:58.456Z,97000.19
2023-02-02T09:35:25.523Z,96993.13
2023-02-02T09:37:52.548Z,97000.13
2023-02-02T09:40:21.010Z,96993.22
2023-02-02T09:42:53.490Z,97002.72
2023-02-02T09:45:29.546Z,96991.53
2023-02-02T09:48:05.177Z,96990.66
2023-02-02T09:50:48.647Z,96995.06
2023-02-02T09:53:26.293Z,96999.22
2023-02-02T09:56:00.190Z,96995.31
2023-02-02T09:58:37.153Z,96994.47
2023-02-02T10:01:10.553Z,97003.63
2023-02-02T10:03:40.359Z,97003.34
2023-02-02T10:06:25.319Z,97008.91
2023-02-02T10:09:02.820Z,97013.72
2023-02-02T10:11:32.570Z,97014.00
2023-02-02T10:14:05.657Z,97011.44
2023-02-02T10:16:33.623Z,97021.06
2023-02-02T10:19:03.126Z,97009.19
2023-02-02T10:21:40.506Z,97021.38
2023-02-02T10:24:22.135Z,97021.44
2023-02-02T10:26:56.094Z,97017.25
2023-02-02T10:29:22.751Z,97014.69
2023-02-02T10:31:52.502Z,97022.75
2023-02-02T10:35:12.497Z,97015.22
2023-02-02T10:37:58.630Z,97015.38
2023-02-02T10:40:42.940Z,97013.81
2023-02-02T10:43:47.214Z,97014.81
2023-02-02T10:46:40.986Z,97007.00
2023-02-02T10:49:16.626Z,97013.84
2023-02-02T10:51:51.641Z,97015.81
2023-02-02T10:54:55.960Z,97019.44
2023-02-02T10:58:02.272Z,97018.69
2023-02-02T11:00:51.483Z,97035.34
2023-02-02T11:06:52.143Z,97022.94
2023-02-02T11:09:24.910Z,97021.97
2023-02-02T11:11:55.818Z,97015.72
2023-02-02T11:14:45.016Z,97022.41
2023-02-02T11:17:21.469Z,97011.59
2023-02-02T11:19:49.867Z,97014.88
2023-02-02T11:22:38.648Z,97009.44
2023-02-02T11:25:25.375Z,97009.19
2023-02-02T11:27:52.334Z,97013.91
2023-02-02T11:30:30.340Z,97013.78
2023-02-02T11:32:58.897Z,97004.09
2023-02-02T11:35:29.899Z,97011.25
2023-02-02T11:38:10.012Z,97009.44
2023-02-02T11:40:41.364Z,97012.81
2023-02-02T11:43:23.017Z,97008.28
2023-02-02T11:46:02.534Z,97000.28
2023-02-02T11:48:35.989Z,97004.41
2023-02-02T11:51:03.897Z,97000.75
2023-02-02T11:53:35.282Z,97006.22
2023-02-02T11:56:25.414Z,97003.00
2023-02-02T11:58:59.140Z,97012.03
2023-02-02T12:01:32.571Z,97010.16
2023-02-02T12:04:01.908Z,97012.75
2023-02-02T12:06:34.901Z,97015.50
2023-02-02T12:09:10.223Z,97026.19
2023-02-02T12:11:39.854Z,97035.75
2023-02-02T12:14:31.953Z,97025.91
2023-02-02T12:17:35.282Z,97026.88
2023-02-02T12:20:28.286Z,97031.38
2023-02-02T12:23:13.737Z,97021.72
2023-02-02T12:25:43.232Z,97017.31
2023-02-02T12:28:33.116Z,97016.22
2023-02-02T12:31:10.144Z,97018.69
2023-02-02T12:33:53.116Z,97016.03
2023-02-02T12:36:54.934Z,97013.31
2023-02-02T12:39:54.756Z,97018.59
2023-02-02T12:42:29.383Z,97022.16
2023-02-02T12:45:36.460Z,97034.44
2023-02-02T12:48:18.366Z,97026.75
2023-02-02T12:51:22.420Z,97029.53
2023-02-02T12:54:32.662Z,97022.69
2023-02-02T12:57:13.033Z,97033.00
2023-02-02T13:00:01.712Z,97033.91
2023-02-02T13:02:30.561Z,97039.16
2023-02-02T13:05:23.562Z,97033.75
2023-02-02T13:07:56.387Z,97046.91
2023-02-02T13:10:34.857Z,97048.44
2023-02-02T13:13:15.209Z,97059.59
2023-02-02T13:15:51.646Z,97065.78
2023-02-02T13:18:28.059Z,97070.03
2023-02-02T13:21:00.711Z,97059.34
2023-02-02T13:23:39.409Z,97063.53
2023-02-02T13:26:27.160Z,97059.47
2023-02-02T13:28:58.162Z,97065.78
2023-02-02T13:31:35.769Z,97077.31
2023-02-02T13:34:11.926Z,97078.50
2023-02-02T13:36:44.158Z,97086.31
2023-02-02T13:39:22.522Z,97088.16
2023-02-02T13:41:50.156Z,97096.13
2023-02-02T13:44:35.065Z,97097.84
2023-02-02T13:47:24.801Z,97101.19
2023-02-02T13:49:57.000Z,97109.06
2023-02-02T13:52:47.870Z,97118.31
2023-02-02T13:55:29.399Z,97119.00
2023-02-02T13:58:14.636Z,97101.53
2023-02-02T14:00:50.316Z,97100.47
2023-02-02T14:03:25.737Z,97110.00
2023-02-02T14:06:12.520Z,97093.53
2023-02-02T14:08:49.408Z,97096.19
2023-02-02T14:11:21.037Z,97106.59
2023-02-02T14:14:09.221Z,97102.19
2023-02-02T14:16:35.920Z,97112.66
2023-02-02T14:19:05.611Z,97108.47
2023-02-02T14:21:32.441Z,97114.69
2023-02-02T14:24:22.120Z,97127.75
2023-02-02T14:26:51.577Z,97122.69
2023-02-02T14:29:30.335Z,97115.00
2023-02-02T14:31:58.798Z,97121.16
2023-02-02T14:34:34.386Z,97122.91
2023-02-02T14:37:27.827Z,97126.47
2023-02-02T14:40:00.347Z,97132.69
2023-02-02T14:42:53.587Z,97134.47
2023-02-02T14:45:32.400Z,97132.72
2023-02-02T14:48:00.658Z,97134.53
2023-02-02T14:50:39.624Z,97138.06
2023-02-02T14:53:13.227Z,97139.91
2023-02-02T14:55:56.361Z,97132.00
2023-02-02T14:58:34.269Z,97138.06
2023-02-02T15:01:24.208Z,97155.56
2023-02-02T15:03:57.752Z,97153.91
2023-02-02T15:06:35.062Z,97149.63
2023-02-02T15:09:20.361Z,97158.22
2023-02-02T15:12:02.837Z,97155.72
2023-02-02T15:14:35.487Z,97157.53
2023-02-02T15:17:12.421Z,97161.00
2023-02-02T15:19:42.698Z,97167.88
2023-02-02T15:22:26.882Z,97178.34
2023-02-02T15:24:54.755Z,97189.56
2023-02-02T15:27:25.238Z,97193.03
2023-02-02T15:30:03.882Z,97198.19
2023-02-02T15:32:31.844Z,97201.66
2023-02-02T15:35:02.298Z,97199.13
2023-02-02T15:37:40.543Z,97207.78
2023-02-02T15:40:14.839Z,97209.50
2023-02-02T15:42:54.817Z,97208.63
2023-02-02T15:45:57.027Z,97213.03
2023-02-02T15:48:25.585Z,97215.72
2023-02-02T15:50:55.497Z,97222.66
2023-02-02T15:53:28.675Z,97226.94
2023-02-02T15:55:57.233Z,97230.41
2023-02-02T15:58:28.483Z,97239.09
2023-02-02T16:01:04.395Z,97250.34
2023-02-02T16:03:46.265Z,97246.84
2023-02-02T16:06:17.270Z,97259.00
2023-02-02T16:08:44.260Z,97258.22
2023-02-02T16:11:20.640Z,97263.53
2023-02-02T16:13:58.329Z,97256.63
2023-02-02T16:16:34.976Z,97257.44
2023-02-02T16:19:21.899Z,97255.66
2023-02-02T16:21:56.208Z,97251.41
2023-02-02T16:24:30.337Z,97251.31
2023-02-02T16:27:03.087Z,97259.19
2023-02-02T16:29:30.520Z,97252.25
2023-02-02T16:31:58.500Z,97253.09
2023-02-02T16:34:40.820Z,97248.81
2023-02-02T16:37:22.618Z,97259.25
2023-02-02T16:39:49.824Z,97261.88
2023-02-02T16:42:29.578Z,97251.38
2023-02-02T16:44:58.259Z,97253.09
2023-02-02T16:47:28.110Z,97256.56
2023-02-02T16:50:13.255Z,97264.44
2023-02-02T16:53:06.524Z,97274.88
2023-02-02T16:55:49.423Z,97273.97
2023-02-02T16:58:22.161Z,97278.41
2023-02-02T17:01:15.404Z,97273.97
2023-02-02T17:03:51.393Z,97293.03
2023-02-02T17:06:25.494Z,97286.97
2023-02-02T17:08:52.558Z,97292.28
2023-02-02T17:11:24.021Z,97307.03
2023-02-02T17:13:51.221Z,97305.28
2023-02-02T17:16:22.006Z,97293.09
2023-02-02T17:18:51.525Z,97306.94
2023-02-02T17:21:21.708Z,97313.94
2023-02-02T17:23:51.576Z,97313.97
2023-02-02T17:26:18.574Z,97315.63
2023-02-02T17:28:45.403Z,97310.44
2023-02-02T17:31:16.796Z,97318.25
2023-02-02T17:33:43.690Z,97315.66
2023-02-02T17:36:12.098Z,97313.94
2023-02-02T17:38:39.554Z,97316.50
2023-02-02T17:41:07.008Z,97320.00
2023-02-02T17:43:33.989Z,97309.63
2023-02-02T17:46:48.279Z,97312.22
2023-02-02T17:49:24.120Z,97294.97
2023-02-02T17:54:58.456Z,97296.81
2023-02-02T17:57:28.909Z,97291.56
2023-02-02T17:59:59.065Z,97290.78
2023-02-02T18:02:25.688Z,97286.50
2023-02-02T18:04:54.685Z,97286.50
2023-02-02T18:07:49.638Z,97281.31
2023-02-02T18:10:17.115Z,97294.44
2023-02-02T18:12:50.224Z,97280.63
2023-02-02T18:15:50.394Z,97289.22
2023-02-02T18:18:20.560Z,97290.13
2023-02-02T18:20:57.096Z,97290.91
2023-02-02T18:23:32.109Z,97293.53
2023-02-02T18:26:19.565Z,97287.44
2023-02-02T18:28:50.617Z,97289.16
2023-02-02T18:31:20.771Z,97294.38
2023-02-02T18:33:50.776Z,97300.41
2023-02-02T18:36:20.756Z,97302.16
2023-02-02T18:38:49.093Z,97290.03
2023-02-02T18:41:18.243Z,97294.38
2023-02-02T18:43:45.605Z,97298.72
2023-02-02T18:46:14.645Z,97293.56
2023-02-02T18:48:44.408Z,97288.41
2023-02-02T18:51:18.041Z,97288.41
2023-02-02T18:53:45.871Z,97284.03
2023-02-02T18:56:13.799Z,97284.94
2023-02-02T18:58:41.052Z,97287.56
2023-02-02T19:01:18.875Z,97277.16
2023-02-02T19:03:51.060Z,97284.94
2023-02-02T19:06:37.275Z,97284.03
2023-02-02T19:09:05.080Z,97288.41
2023-02-02T19:11:39.279Z,97285.84
2023-02-02T19:14:14.581Z,97285.81
2023-02-02T19:16:41.849Z,97291.00
2023-02-02T19:19:26.104Z,97295.34
2023-02-02T19:21:57.639Z,97288.38
2023-02-02T19:24:33.945Z,97293.53
2023-02-02T19:27:00.576Z,97283.13
2023-02-02T19:29:33.534Z,97287.47
2023-02-02T19:32:04.856Z,97285.75
2023-02-02T19:34:33.642Z,97292.66
2023-02-02T19:37:02.708Z,97291.84
2023-02-02T19:39:31.945Z,97290.09
2023-02-02T19:42:00.373Z,97297.91
2023-02-02T19:44:34.157Z,97299.66
2023-02-02T19:47:02.827Z,97303.16
2023-02-02T19:49:34.917Z,97306.59
2023-02-02T19:52:06.137Z,97317.03
2023-02-02T19:54:45.104Z,97314.41
2023-02-02T19:57:11.688Z,97323.06
2023-02-02T19:59:38.373Z,97316.09
2023-02-02T20:02:39.098Z,97315.25
2023-02-02T20:05:12.282Z,97316.16
2023-02-02T20:07:39.470Z,97311.00
2023-02-02T20:10:20.402Z,97304.91
2023-02-02T20:12:47.106Z,97313.53
2023-02-02T20:15:34.100Z,97311.81
2023-02-02T20:18:05.940Z,97319.53
2023-02-02T20:20:39.236Z,97317.75
2023-02-02T20:23:26.494Z,97318.66
2023-02-02T20:25:53.267Z,97322.97
2023-02-02T20:28:41.697Z,97323.75
2023-02-02T20:31:10.933Z,97322.97
2023-02-02T20:33:40.161Z,97329.03
2023-02-02T20:36:25.325Z,97332.47
2023-02-02T20:38:52.001Z,97342.78
2023-02-02T20:41:18.931Z,97351.41
2023-02-02T20:43:46.449Z,97346.25
2023-02-02T20:46:13.481Z,97353.19
2023-02-02T20:48:40.219Z,97350.63
2023-02-02T20:51:07.025Z,97354.97
2023-02-02T20:53:33.657Z,97355.84
2023-02-02T20:56:02.163Z,97358.47
2023-02-02T20:58:28.859Z,97361.97
2023-02-02T21:00:55.637Z,97362.88
2023-02-02T21:03:25.451Z,97362.81
2023-02-02T21:05:52.235Z,97364.56
2023-02-02T21:08:18.878Z,97370.63
2023-02-02T21:10:45.495Z,97370.63
2023-02-02T21:13:12.299Z,97368.09
2023-02-02T21:15:38.927Z,97364.59
2023-02-02T21:18:05.549Z,97368.97
2023-02-02T21:20:32.164Z,97372.41
2023-02-02T21:22:58.734Z,97378.50
2023-02-02T21:25:25.413Z,97375.94
2023-02-02T21:27:52.062Z,97376.81
2023-02-02T21:30:18.749Z,97383.72
2023-02-02T21:32:45.629Z,97379.38
2023-02-02T21:35:14.201Z,97382.84
2023-02-02T21:37:43.491Z,97376.75
2023-02-02T21:40:24.888Z,97381.13
2023-02-02T21:42:51.667Z,97382.88
2023-02-02T21:45:21.133Z,97377.69
2023-02-02T21:48:02.678Z,97377.66
2023-02-02T21:50:35.800Z,97381.13
2023-02-02T21:53:20.061Z,97381.09
2023-02-02T21:55:52.632Z,97387.13
2023-02-02T21:58:27.752Z,97392.31
2023-02-02T22:00:58.656Z,97391.47
2023-02-02T22:03:37.982Z,97392.34
2023-02-02T22:06:29.315Z,97400.16
2023-02-02T22:09:13.909Z,97410.53
2023-02-02T22:12:02.028Z,97409.72
2023-02-02T22:14:41.470Z,97403.69
2023-02-02T22:17:33.936Z,97405.41
2023-02-02T22:20:10.407Z,97402.81
2023-02-02T22:22:41.743Z,97408.94
2023-02-02T22:25:30.552Z,97403.69
2023-02-02T22:27:59.933Z,97411.50
2023-02-02T22:30:37.559Z,97411.53
2023-02-02T22:33:09.025Z,97410.66
2023-02-02T22:35:36.307Z,97414.13
2023-02-02T22:38:03.700Z,97415.00
2023-02-02T22:40:31.144Z,97405.50
2023-02-02T22:43:00.966Z,97410.72
2023-02-02T22:45:27.783Z,97417.63
2023-02-02T22:47:54.871Z,97422.81
2023-02-02T22:50:24.861Z,97424.53
2023-02-02T22:52:52.294Z,97427.19
2023-02-02T22:55:19.366Z,97426.34
2023-02-02T22:57:46.101Z,97435.03
2023-02-02T23:00:18.674Z,97435.94
2023-02-02T23:02:45.560Z,97442.91
2023-02-02T23:05:14.551Z,97441.16
2023-02-02T23:07:44.159Z,97445.50
2023-02-02T23:10:13.648Z,97445.53
2023-02-02T23:12:41.313Z,97452.47
2023-02-02T23:15:08.507Z,97450.75
2023-02-02T23:17:38.248Z,97452.44
2023-02-02T23:20:07.155Z,97452.44
2023-02-02T23:22:33.812Z,97461.13
2023-02-02T23:25:00.567Z,97466.25
2023-02-02T23:27:27.396Z,97464.53
2023-02-02T23:29:54.149Z,97471.50
2023-02-02T23:32:20.900Z,97468.03
2023-02-02T23:34:47.564Z,97465.41
2023-02-02T23:37:14.311Z,97462.78
2023-02-02T23:39:41.007Z,97454.97
2023-02-02T23:42:07.637Z,97467.09
2023-02-02T23:44:34.288Z,97467.13
2023-02-02T23:47:02.289Z,97463.56
2023-02-02T23:49:34.178Z,97468.78
2023-02-02T23:52:00.869Z,97471.34
2023-02-02T23:54:28.218Z,97473.03
2023-02-02T23:56:55.571Z,97475.59
2023-02-02T23:59:22.218Z,97472.16
